Crookstown, Ireland
Current Conditions -  °F | °C
As of 9:00 PM on Thursday 18 Dec 2014 (Local Time) from EICK Reporting Station
Broken Clouds Broken Clouds  
Wind Chill: 54°   Ceiling: 800
Heat Index: 54°   Visibility: 6mi
Dew Point: 52°   Wind: 16mph
Humidity: 94%   Direction: 250°WSW
Pressure: 29.74"   Gusts: 28mph
Location:  51.84°N, 8.83°W
Report Text: EICK 182100Z 25014G24KT 9999 BKN008 BKN016 12/11 Q1007 BECMG BKN012
Loading
Personal Weather Stations






























Interactive Weather Map New forecast layout! Learn more

10-Day Weather Forecast

Advertisements
Track Severe Weather on mobile